sensor_id;sensor_type;location;lat;lon;timestamp;temperature;humidity
21830;DHT22;11077;50.264;6.798;2023-04-10T00:00:30;2.60;99.90
21830;DHT22;11077;50.264;6.798;2023-04-10T00:02:58;2.60;99.90
21830;DHT22;11077;50.264;6.798;2023-04-10T00:05:26;2.60;99.90
21830;DHT22;11077;50.264;6.798;2023-04-10T00:07:54;2.60;99.90
21830;DHT22;11077;50.264;6.798;2023-04-10T00:10:21;2.60;99.90
21830;DHT22;11077;50.264;6.798;2023-04-10T00:12:51;2.70;99.90
21830;DHT22;11077;50.264;6.798;2023-04-10T00:15:18;2.60;99.90
21830;DHT22;11077;50.264;6.798;2023-04-10T00:17:46;2.60;99.90
21830;DHT22;11077;50.264;6.798;2023-04-10T00:20:15;2.60;99.90
21830;DHT22;11077;50.264;6.798;2023-04-10T00:22:42;2.60;99.90
21830;DHT22;11077;50.264;6.798;2023-04-10T00:25:11;2.60;99.90
21830;DHT22;11077;50.264;6.798;2023-04-10T00:27:38;2.60;99.90
21830;DHT22;11077;50.264;6.798;2023-04-10T00:30:06;2.50;99.90
21830;DHT22;11077;50.264;6.798;2023-04-10T00:32:33;2.50;99.90
21830;DHT22;11077;50.264;6.798;2023-04-10T00:35:01;2.40;99.90
21830;DHT22;11077;50.264;6.798;2023-04-10T00:37:28;2.30;99.90
21830;DHT22;11077;50.264;6.798;2023-04-10T00:39:55;2.40;99.90
21830;DHT22;11077;50.264;6.798;2023-04-10T00:42:24;2.40;99.90
21830;DHT22;11077;50.264;6.798;2023-04-10T00:44:51;2.40;99.90
21830;DHT22;11077;50.264;6.798;2023-04-10T00:47:19;2.40;99.90
21830;DHT22;11077;50.264;6.798;2023-04-10T00:49:46;2.40;99.90
21830;DHT22;11077;50.264;6.798;2023-04-10T00:52:13;2.40;99.90
21830;DHT22;11077;50.264;6.798;2023-04-10T00:54:41;2.40;99.90
21830;DHT22;11077;50.264;6.798;2023-04-10T00:57:08;2.40;99.90
21830;DHT22;11077;50.264;6.798;2023-04-10T00:59:39;2.40;99.90
21830;DHT22;11077;50.264;6.798;2023-04-10T01:02:06;2.40;99.90
21830;DHT22;11077;50.264;6.798;2023-04-10T01:04:33;2.40;99.90
21830;DHT22;11077;50.264;6.798;2023-04-10T01:07:09;2.30;99.90
21830;DHT22;11077;50.264;6.798;2023-04-10T01:09:43;2.30;99.90
21830;DHT22;11077;50.264;6.798;2023-04-10T01:12:19;2.30;99.90
21830;DHT22;11077;50.264;6.798;2023-04-10T01:14:59;2.20;99.90
21830;DHT22;11077;50.264;6.798;2023-04-10T01:17:37;2.20;99.90
21830;DHT22;11077;50.264;6.798;2023-04-10T01:20:09;2.20;99.90
21830;DHT22;11077;50.264;6.798;2023-04-10T01:22:45;2.30;99.90
21830;DHT22;11077;50.264;6.798;2023-04-10T01:25:35;2.30;99.90
21830;DHT22;11077;50.264;6.798;2023-04-10T01:28:15;2.30;99.90
21830;DHT22;11077;50.264;6.798;2023-04-10T01:30:51;2.40;99.90
21830;DHT22;11077;50.264;6.798;2023-04-10T01:33:21;2.40;99.90
21830;DHT22;11077;50.264;6.798;2023-04-10T01:35:53;2.40;99.90
21830;DHT22;11077;50.264;6.798;2023-04-10T01:38:23;2.40;99.90
21830;DHT22;11077;50.264;6.798;2023-04-10T01:40:52;2.40;99.90
21830;DHT22;11077;50.264;6.798;2023-04-10T01:43:27;2.40;99.90
21830;DHT22;11077;50.264;6.798;2023-04-10T01:45:57;2.50;99.90
21830;DHT22;11077;50.264;6.798;2023-04-10T01:48:27;2.60;99.90
21830;DHT22;11077;50.264;6.798;2023-04-10T01:50:55;2.60;99.90
21830;DHT22;11077;50.264;6.798;2023-04-10T01:53:24;2.70;99.90
21830;DHT22;11077;50.264;6.798;2023-04-10T01:55:52;2.80;99.90
21830;DHT22;11077;50.264;6.798;2023-04-10T01:58:20;2.90;99.90
21830;DHT22;11077;50.264;6.798;2023-04-10T02:00:47;3.00;99.90
21830;DHT22;11077;50.264;6.798;2023-04-10T02:03:16;3.10;99.90
21830;DHT22;11077;50.264;6.798;2023-04-10T02:05:52;3.10;99.90
21830;DHT22;11077;50.264;6.798;2023-04-10T02:08:25;3.20;99.90
21830;DHT22;11077;50.264;6.798;2023-04-10T02:11:00;3.30;99.90
21830;DHT22;11077;50.264;6.798;2023-04-10T02:13:29;3.40;99.90
21830;DHT22;11077;50.264;6.798;2023-04-10T02:16:03;3.40;99.90
21830;DHT22;11077;50.264;6.798;2023-04-10T02:18:35;3.50;99.90
21830;DHT22;11077;50.264;6.798;2023-04-10T02:21:04;3.50;99.90
21830;DHT22;11077;50.264;6.798;2023-04-10T02:23:32;3.60;99.90
21830;DHT22;11077;50.264;6.798;2023-04-10T02:26:05;3.60;99.90
21830;DHT22;11077;50.264;6.798;2023-04-10T02:28:33;3.60;99.90
21830;DHT22;11077;50.264;6.798;2023-04-10T02:31:00;3.70;99.90
21830;DHT22;11077;50.264;6.798;2023-04-10T02:33:27;3.80;99.90
21830;DHT22;11077;50.264;6.798;2023-04-10T02:35:57;3.80;99.90
21830;DHT22;11077;50.264;6.798;2023-04-10T02:38:24;3.80;99.90
21830;DHT22;11077;50.264;6.798;2023-04-10T02:40:52;3.80;99.90
21830;DHT22;11077;50.264;6.798;2023-04-10T02:43:20;3.80;99.90
21830;DHT22;11077;50.264;6.798;2023-04-10T02:45:47;3.70;99.90
21830;DHT22;11077;50.264;6.798;2023-04-10T02:48:21;3.70;99.90
21830;DHT22;11077;50.264;6.798;2023-04-10T02:50:58;3.70;99.90
21830;DHT22;11077;50.264;6.798;2023-04-10T02:53:27;3.70;99.90
21830;DHT22;11077;50.264;6.798;2023-04-10T02:55:58;3.70;99.90
21830;DHT22;11077;50.264;6.798;2023-04-10T02:58:27;3.70;99.90
21830;DHT22;11077;50.264;6.798;2023-04-10T03:00:56;3.70;99.90
21830;DHT22;11077;50.264;6.798;2023-04-10T03:03:49;3.70;99.90
21830;DHT22;11077;50.264;6.798;2023-04-10T03:06:39;3.70;99.90
21830;DHT22;11077;50.264;6.798;2023-04-10T03:09:06;3.70;99.90
21830;DHT22;11077;50.264;6.798;2023-04-10T03:11:34;3.70;99.90
21830;DHT22;11077;50.264;6.798;2023-04-10T03:14:01;3.70;99.90
21830;DHT22;11077;50.264;6.798;2023-04-10T03:16:28;3.60;99.90
21830;DHT22;11077;50.264;6.798;2023-04-10T03:18:56;3.50;99.90
21830;DHT22;11077;50.264;6.798;2023-04-10T03:21:23;3.50;99.90
21830;DHT22;11077;50.264;6.798;2023-04-10T03:23:51;3.50;99.90
21830;DHT22;11077;50.264;6.798;2023-04-10T03:26:19;3.50;99.90
21830;DHT22;11077;50.264;6.798;2023-04-10T03:28:46;3.40;99.90
21830;DHT22;11077;50.264;6.798;2023-04-10T03:31:13;3.40;99.90
21830;DHT22;11077;50.264;6.798;2023-04-10T03:33:42;3.40;99.90
21830;DHT22;11077;50.264;6.798;2023-04-10T03:36:11;3.40;99.90
21830;DHT22;11077;50.264;6.798;2023-04-10T03:38:38;3.40;99.90
21830;DHT22;11077;50.264;6.798;2023-04-10T03:41:09;3.40;99.90
21830;DHT22;11077;50.264;6.798;2023-04-10T03:43:36;3.40;99.90
21830;DHT22;11077;50.264;6.798;2023-04-10T03:46:05;3.40;99.90
21830;DHT22;11077;50.264;6.798;2023-04-10T03:48:38;3.30;99.90
21830;DHT22;11077;50.264;6.798;2023-04-10T03:51:06;3.30;99.90
21830;DHT22;11077;50.264;6.798;2023-04-10T03:53:33;3.20;99.90
21830;DHT22;11077;50.264;6.798;2023-04-10T03:56:06;3.20;99.90
21830;DHT22;11077;50.264;6.798;2023-04-10T03:58:36;3.30;99.90
21830;DHT22;11077;50.264;6.798;2023-04-10T04:01:04;3.30;99.90
21830;DHT22;11077;50.264;6.798;2023-04-10T04:03:54;3.30;99.90
21830;DHT22;11077;50.264;6.798;2023-04-10T04:06:42;3.30;99.90
21830;DHT22;11077;50.264;6.798;2023-04-10T04:09:27;3.40;99.90
21830;DHT22;11077;50.264;6.798;2023-04-10T04:12:16;3.50;99.90
21830;DHT22;11077;50.264;6.798;2023-04-10T04:15:10;3.50;99.90
21830;DHT22;11077;50.264;6.798;2023-04-10T04:17:50;3.50;99.90
21830;DHT22;11077;50.264;6.798;2023-04-10T04:20:34;3.50;99.90
21830;DHT22;11077;50.264;6.798;2023-04-10T04:23:12;3.60;99.90
21830;DHT22;11077;50.264;6.798;2023-04-10T04:25:58;3.60;99.90
21830;DHT22;11077;50.264;6.798;2023-04-10T04:29:04;3.60;99.90
21830;DHT22;11077;50.264;6.798;2023-04-10T04:31:39;3.60;99.90
21830;DHT22;11077;50.264;6.798;2023-04-10T04:34:09;3.50;99.90
21830;DHT22;11077;50.264;6.798;2023-04-10T04:36:49;3.50;99.90
21830;DHT22;11077;50.264;6.798;2023-04-10T04:39:34;3.50;99.90
21830;DHT22;11077;50.264;6.798;2023-04-10T04:42:01;3.50;99.90
21830;DHT22;11077;50.264;6.798;2023-04-10T04:44:48;3.40;99.90
21830;DHT22;11077;50.264;6.798;2023-04-10T04:47:52;3.30;99.90
21830;DHT22;11077;50.264;6.798;2023-04-10T04:50:40;3.30;99.90
21830;DHT22;11077;50.264;6.798;2023-04-10T04:53:26;3.30;99.90
21830;DHT22;11077;50.264;6.798;2023-04-10T04:56:06;3.20;99.90
21830;DHT22;11077;50.264;6.798;2023-04-10T04:58:46;3.20;99.90
21830;DHT22;11077;50.264;6.798;2023-04-10T05:01:27;3.20;99.90
21830;DHT22;11077;50.264;6.798;2023-04-10T05:04:08;3.10;99.90
21830;DHT22;11077;50.264;6.798;2023-04-10T05:07:11;3.10;99.90
21830;DHT22;11077;50.264;6.798;2023-04-10T05:09:56;3.10;99.90
21830;DHT22;11077;50.264;6.798;2023-04-10T05:12:42;3.10;99.90
21830;DHT22;11077;50.264;6.798;2023-04-10T05:15:27;3.00;99.90
21830;DHT22;11077;50.264;6.798;2023-04-10T05:18:13;3.00;99.90
21830;DHT22;11077;50.264;6.798;2023-04-10T05:20:58;3.00;99.90
21830;DHT22;11077;50.264;6.798;2023-04-10T05:23:41;3.00;99.90
21830;DHT22;11077;50.264;6.798;2023-04-10T05:26:34;2.90;99.90
21830;DHT22;11077;50.264;6.798;2023-04-10T05:29:21;2.80;99.90
21830;DHT22;11077;50.264;6.798;2023-04-10T05:32:07;2.80;99.90
21830;DHT22;11077;50.264;6.798;2023-04-10T05:34:49;2.80;99.90
21830;DHT22;11077;50.264;6.798;2023-04-10T05:37:34;2.90;99.90
21830;DHT22;11077;50.264;6.798;2023-04-10T05:40:21;2.90;99.90
21830;DHT22;11077;50.264;6.798;2023-04-10T05:43:07;3.00;99.90
21830;DHT22;11077;50.264;6.798;2023-04-10T05:45:59;3.10;99.90
21830;DHT22;11077;50.264;6.798;2023-04-10T05:48:53;3.10;99.90
21830;DHT22;11077;50.264;6.798;2023-04-10T05:51:20;3.10;99.90
21830;DHT22;11077;50.264;6.798;2023-04-10T05:54:17;3.20;99.90
21830;DHT22;11077;50.264;6.798;2023-04-10T05:57:08;3.30;99.90
21830;DHT22;11077;50.264;6.798;2023-04-10T06:00:04;3.40;99.90
21830;DHT22;11077;50.264;6.798;2023-04-10T06:02:56;3.40;99.90
21830;DHT22;11077;50.264;6.798;2023-04-10T06:05:26;3.60;99.90
21830;DHT22;11077;50.264;6.798;2023-04-10T06:07:59;3.60;99.90
21830;DHT22;11077;50.264;6.798;2023-04-10T06:10:29;3.60;99.90
21830;DHT22;11077;50.264;6.798;2023-04-10T06:12:56;3.70;99.90
21830;DHT22;11077;50.264;6.798;2023-04-10T06:15:25;3.80;99.90
21830;DHT22;11077;50.264;6.798;2023-04-10T06:17:53;3.90;99.90
21830;DHT22;11077;50.264;6.798;2023-04-10T06:20:20;4.00;99.90
21830;DHT22;11077;50.264;6.798;2023-04-10T06:22:50;4.00;99.90
21830;DHT22;11077;50.264;6.798;2023-04-10T06:25:17;4.20;99.90
21830;DHT22;11077;50.264;6.798;2023-04-10T06:27:46;4.30;99.90
21830;DHT22;11077;50.264;6.798;2023-04-10T06:30:13;4.50;99.90
21830;DHT22;11077;50.264;6.798;2023-04-10T06:32:40;4.70;99.90
21830;DHT22;11077;50.264;6.798;2023-04-10T06:35:08;4.90;99.90
21830;DHT22;11077;50.264;6.798;2023-04-10T06:37:36;5.10;99.90
21830;DHT22;11077;50.264;6.798;2023-04-10T06:40:05;5.30;99.90
21830;DHT22;11077;50.264;6.798;2023-04-10T06:42:33;5.50;99.90
21830;DHT22;11077;50.264;6.798;2023-04-10T06:45:09;5.70;99.90
21830;DHT22;11077;50.264;6.798;2023-04-10T06:47:36;5.90;99.90
21830;DHT22;11077;50.264;6.798;2023-04-10T06:50:04;6.10;99.90
21830;DHT22;11077;50.264;6.798;2023-04-10T06:52:32;6.30;99.90
21830;DHT22;11077;50.264;6.798;2023-04-10T06:54:59;6.50;99.90
21830;DHT22;11077;50.264;6.798;2023-04-10T06:57:26;6.80;99.90
21830;DHT22;11077;50.264;6.798;2023-04-10T06:59:54;7.00;99.90
21830;DHT22;11077;50.264;6.798;2023-04-10T07:02:22;7.20;99.90
21830;DHT22;11077;50.264;6.798;2023-04-10T07:04:50;7.40;99.90
21830;DHT22;11077;50.264;6.798;2023-04-10T07:07:18;7.60;99.90
21830;DHT22;11077;50.264;6.798;2023-04-10T07:09:45;7.80;99.90
21830;DHT22;11077;50.264;6.798;2023-04-10T07:12:13;8.00;99.90
21830;DHT22;11077;50.264;6.798;2023-04-10T07:14:41;8.20;99.90
21830;DHT22;11077;50.264;6.798;2023-04-10T07:17:08;8.40;99.90
21830;DHT22;11077;50.264;6.798;2023-04-10T07:19:37;8.50;99.90
21830;DHT22;11077;50.264;6.798;2023-04-10T07:22:04;8.70;99.90
21830;DHT22;11077;50.264;6.798;2023-04-10T07:24:32;8.80;99.90
21830;DHT22;11077;50.264;6.798;2023-04-10T07:26:59;8.90;99.90
21830;DHT22;11077;50.264;6.798;2023-04-10T07:29:26;9.00;99.90
21830;DHT22;11077;50.264;6.798;2023-04-10T07:31:53;9.00;99.90
21830;DHT22;11077;50.264;6.798;2023-04-10T07:34:21;9.10;99.90
21830;DHT22;11077;50.264;6.798;2023-04-10T07:36:50;9.10;99.90
21830;DHT22;11077;50.264;6.798;2023-04-10T07:39:17;9.10;99.90
21830;DHT22;11077;50.264;6.798;2023-04-10T07:41:45;9.20;99.90
21830;DHT22;11077;50.264;6.798;2023-04-10T07:44:12;9.30;99.90
21830;DHT22;11077;50.264;6.798;2023-04-10T07:46:39;9.40;99.90
21830;DHT22;11077;50.264;6.798;2023-04-10T07:49:07;9.50;99.90
21830;DHT22;11077;50.264;6.798;2023-04-10T07:51:34;9.60;99.90
21830;DHT22;11077;50.264;6.798;2023-04-10T07:54:03;9.70;99.90
21830;DHT22;11077;50.264;6.798;2023-04-10T07:56:30;9.70;99.90
21830;DHT22;11077;50.264;6.798;2023-04-10T07:58:58;9.80;99.90
21830;DHT22;11077;50.264;6.798;2023-04-10T08:01:26;9.80;99.90
21830;DHT22;11077;50.264;6.798;2023-04-10T08:03:53;9.90;99.90
21830;DHT22;11077;50.264;6.798;2023-04-10T08:06:21;10.00;99.90
21830;DHT22;11077;50.264;6.798;2023-04-10T08:08:48;10.10;99.90
21830;DHT22;11077;50.264;6.798;2023-04-10T08:11:26;10.10;99.90
21830;DHT22;11077;50.264;6.798;2023-04-10T08:13:55;10.10;99.90
21830;DHT22;11077;50.264;6.798;2023-04-10T08:16:23;10.10;99.90
21830;DHT22;11077;50.264;6.798;2023-04-10T08:18:51;10.20;99.90
21830;DHT22;11077;50.264;6.798;2023-04-10T08:21:19;10.30;99.90
21830;DHT22;11077;50.264;6.798;2023-04-10T08:23:48;10.50;99.90
21830;DHT22;11077;50.264;6.798;2023-04-10T08:26:16;10.70;99.90
21830;DHT22;11077;50.264;6.798;2023-04-10T08:28:46;10.80;99.90
21830;DHT22;11077;50.264;6.798;2023-04-10T08:31:14;10.90;99.90
21830;DHT22;11077;50.264;6.798;2023-04-10T08:33:42;11.10;99.90
21830;DHT22;11077;50.264;6.798;2023-04-10T08:36:09;11.20;99.90
21830;DHT22;11077;50.264;6.798;2023-04-10T08:38:37;11.30;99.90
21830;DHT22;11077;50.264;6.798;2023-04-10T08:41:05;11.40;99.90
21830;DHT22;11077;50.264;6.798;2023-04-10T08:43:32;11.70;99.90
21830;DHT22;11077;50.264;6.798;2023-04-10T08:46:03;11.80;99.90
21830;DHT22;11077;50.264;6.798;2023-04-10T08:48:37;11.80;99.90
21830;DHT22;11077;50.264;6.798;2023-04-10T08:51:08;11.60;99.90
21830;DHT22;11077;50.264;6.798;2023-04-10T08:53:40;11.60;99.90
21830;DHT22;11077;50.264;6.798;2023-04-10T08:56:11;11.60;99.90
21830;DHT22;11077;50.264;6.798;2023-04-10T08:58:39;11.70;99.90
21830;DHT22;11077;50.264;6.798;2023-04-10T09:01:08;11.80;99.90
21830;DHT22;11077;50.264;6.798;2023-04-10T09:03:37;11.90;99.90
21830;DHT22;11077;50.264;6.798;2023-04-10T09:06:05;11.90;99.90
21830;DHT22;11077;50.264;6.798;2023-04-10T09:08:33;12.00;99.90
21830;DHT22;11077;50.264;6.798;2023-04-10T09:11:01;12.10;99.90
21830;DHT22;11077;50.264;6.798;2023-04-10T09:13:36;12.00;99.90
21830;DHT22;11077;50.264;6.798;2023-04-10T09:16:04;12.10;99.90
21830;DHT22;11077;50.264;6.798;2023-04-10T09:18:45;12.10;99.90
21830;DHT22;11077;50.264;6.798;2023-04-10T09:21:13;11.90;99.90
21830;DHT22;11077;50.264;6.798;2023-04-10T09:23:42;11.90;99.90
21830;DHT22;11077;50.264;6.798;2023-04-10T09:26:24;12.10;99.90
21830;DHT22;11077;50.264;6.798;2023-04-10T09:28:56;12.20;99.90
21830;DHT22;11077;50.264;6.798;2023-04-10T09:31:28;12.30;99.90
21830;DHT22;11077;50.264;6.798;2023-04-10T09:34:15;12.40;99.90
21830;DHT22;11077;50.264;6.798;2023-04-10T09:36:43;12.50;99.90
21830;DHT22;11077;50.264;6.798;2023-04-10T09:39:11;12.60;99.90
21830;DHT22;11077;50.264;6.798;2023-04-10T09:41:49;12.70;99.90
21830;DHT22;11077;50.264;6.798;2023-04-10T09:44:18;12.90;99.90
21830;DHT22;11077;50.264;6.798;2023-04-10T09:46:45;12.80;99.90
21830;DHT22;11077;50.264;6.798;2023-04-10T09:49:16;12.90;99.90
21830;DHT22;11077;50.264;6.798;2023-04-10T09:51:43;13.00;99.90
21830;DHT22;11077;50.264;6.798;2023-04-10T09:54:12;13.00;99.90
21830;DHT22;11077;50.264;6.798;2023-04-10T09:56:40;13.00;99.90
21830;DHT22;11077;50.264;6.798;2023-04-10T09:59:07;12.90;99.90
21830;DHT22;11077;50.264;6.798;2023-04-10T10:01:36;12.90;99.90
21830;DHT22;11077;50.264;6.798;2023-04-10T10:04:06;12.90;99.90
21830;DHT22;11077;50.264;6.798;2023-04-10T10:06:37;12.90;99.90
21830;DHT22;11077;50.264;6.798;2023-04-10T10:09:05;13.00;99.90
21830;DHT22;11077;50.264;6.798;2023-04-10T10:11:34;13.20;99.90
21830;DHT22;11077;50.264;6.798;2023-04-10T10:14:02;13.30;99.90
21830;DHT22;11077;50.264;6.798;2023-04-10T10:16:33;13.60;99.90
21830;DHT22;11077;50.264;6.798;2023-04-10T10:19:08;13.60;99.90
21830;DHT22;11077;50.264;6.798;2023-04-10T10:21:38;13.70;99.90
21830;DHT22;11077;50.264;6.798;2023-04-10T10:24:07;13.90;99.90
21830;DHT22;11077;50.264;6.798;2023-04-10T10:26:35;14.00;99.90
21830;DHT22;11077;50.264;6.798;2023-04-10T10:29:06;14.10;99.90
21830;DHT22;11077;50.264;6.798;2023-04-10T10:31:36;14.30;99.90
21830;DHT22;11077;50.264;6.798;2023-04-10T10:34:04;14.40;99.90
21830;DHT22;11077;50.264;6.798;2023-04-10T10:36:34;14.50;99.90
21830;DHT22;11077;50.264;6.798;2023-04-10T10:39:16;14.60;99.30
21830;DHT22;11077;50.264;6.798;2023-04-10T10:41:57;14.60;98.50
21830;DHT22;11077;50.264;6.798;2023-04-10T10:44:32;14.60;99.90
21830;DHT22;11077;50.264;6.798;2023-04-10T10:47:09;14.70;99.80
21830;DHT22;11077;50.264;6.798;2023-04-10T10:49:54;14.60;99.20
21830;DHT22;11077;50.264;6.798;2023-04-10T10:52:41;14.70;98.80
21830;DHT22;11077;50.264;6.798;2023-04-10T10:55:32;14.70;97.40
21830;DHT22;11077;50.264;6.798;2023-04-10T10:58:04;14.70;95.80
21830;DHT22;11077;50.264;6.798;2023-04-10T11:01:05;14.60;96.70
21830;DHT22;11077;50.264;6.798;2023-04-10T11:03:33;14.60;96.50
21830;DHT22;11077;50.264;6.798;2023-04-10T11:06:02;14.70;97.00
21830;DHT22;11077;50.264;6.798;2023-04-10T11:08:37;14.70;97.00
21830;DHT22;11077;50.264;6.798;2023-04-10T11:11:10;14.80;95.40
21830;DHT22;11077;50.264;6.798;2023-04-10T11:16:41;14.70;96.40
21830;DHT22;11077;50.264;6.798;2023-04-10T11:19:09;14.40;95.50
21830;DHT22;11077;50.264;6.798;2023-04-10T11:22:00;14.20;96.10
21830;DHT22;11077;50.264;6.798;2023-04-10T11:24:28;14.30;95.70
21830;DHT22;11077;50.264;6.798;2023-04-10T11:26:57;14.30;95.10
21830;DHT22;11077;50.264;6.798;2023-04-10T11:29:33;14.10;95.30
21830;DHT22;11077;50.264;6.798;2023-04-10T11:32:01;14.20;95.70
21830;DHT22;11077;50.264;6.798;2023-04-10T11:34:29;14.20;94.80
21830;DHT22;11077;50.264;6.798;2023-04-10T11:36:58;14.20;95.10
21830;DHT22;11077;50.264;6.798;2023-04-10T11:39:29;14.10;94.90
21830;DHT22;11077;50.264;6.798;2023-04-10T11:41:58;14.10;95.40
21830;DHT22;11077;50.264;6.798;2023-04-10T11:44:28;14.10;94.90
21830;DHT22;11077;50.264;6.798;2023-04-10T11:46:56;14.10;95.20
21830;DHT22;11077;50.264;6.798;2023-04-10T11:49:25;14.00;95.10
21830;DHT22;11077;50.264;6.798;2023-04-10T11:51:53;13.90;95.50
21830;DHT22;11077;50.264;6.798;2023-04-10T11:54:21;13.80;95.50
21830;DHT22;11077;50.264;6.798;2023-04-10T11:57:01;13.70;95.50
21830;DHT22;11077;50.264;6.798;2023-04-10T11:59:30;13.90;96.60
21830;DHT22;11077;50.264;6.798;2023-04-10T12:02:05;13.90;95.90
21830;DHT22;11077;50.264;6.798;2023-04-10T12:04:34;13.90;95.90
21830;DHT22;11077;50.264;6.798;2023-04-10T12:07:02;13.90;95.70
21830;DHT22;11077;50.264;6.798;2023-04-10T12:09:29;13.90;94.80
21830;DHT22;11077;50.264;6.798;2023-04-10T12:11:59;14.00;94.80
21830;DHT22;11077;50.264;6.798;2023-04-10T12:14:30;14.10;95.50
21830;DHT22;11077;50.264;6.798;2023-04-10T12:16:58;14.20;96.30
21830;DHT22;11077;50.264;6.798;2023-04-10T12:19:26;14.30;95.40
21830;DHT22;11077;50.264;6.798;2023-04-10T12:21:53;14.30;96.00
21830;DHT22;11077;50.264;6.798;2023-04-10T12:24:40;14.40;96.20
21830;DHT22;11077;50.264;6.798;2023-04-10T12:27:15;14.40;96.30
21830;DHT22;11077;50.264;6.798;2023-04-10T12:29:42;14.40;96.30
21830;DHT22;11077;50.264;6.798;2023-04-10T12:32:10;14.30;95.50
21830;DHT22;11077;50.264;6.798;2023-04-10T12:34:37;14.30;96.00
21830;DHT22;11077;50.264;6.798;2023-04-10T12:37:05;14.30;95.00
21830;DHT22;11077;50.264;6.798;2023-04-10T12:39:32;14.20;95.60
21830;DHT22;11077;50.264;6.798;2023-04-10T12:42:15;14.20;95.90
21830;DHT22;11077;50.264;6.798;2023-04-10T12:44:51;14.20;95.90
21830;DHT22;11077;50.264;6.798;2023-04-10T12:47:19;14.20;94.90
21830;DHT22;11077;50.264;6.798;2023-04-10T12:50:04;14.20;94.70
21830;DHT22;11077;50.264;6.798;2023-04-10T12:52:32;14.40;95.50
21830;DHT22;11077;50.264;6.798;2023-04-10T12:55:11;14.50;94.30
21830;DHT22;11077;50.264;6.798;2023-04-10T12:57:40;14.50;94.30
21830;DHT22;11077;50.264;6.798;2023-04-10T13:00:09;14.60;95.10
21830;DHT22;11077;50.264;6.798;2023-04-10T13:02:37;14.70;97.40
21830;DHT22;11077;50.264;6.798;2023-04-10T13:05:06;14.70;94.90
21830;DHT22;11077;50.264;6.798;2023-04-10T13:07:33;14.70;94.30
21830;DHT22;11077;50.264;6.798;2023-04-10T13:10:02;14.60;95.40
21830;DHT22;11077;50.264;6.798;2023-04-10T13:12:30;14.60;95.20
21830;DHT22;11077;50.264;6.798;2023-04-10T13:15:01;14.40;95.50
21830;DHT22;11077;50.264;6.798;2023-04-10T13:17:28;14.30;96.80
21830;DHT22;11077;50.264;6.798;2023-04-10T13:19:55;14.30;95.90
21830;DHT22;11077;50.264;6.798;2023-04-10T13:22:22;14.30;96.30
21830;DHT22;11077;50.264;6.798;2023-04-10T13:24:49;14.20;94.60
21830;DHT22;11077;50.264;6.798;2023-04-10T13:27:20;14.10;95.90
21830;DHT22;11077;50.264;6.798;2023-04-10T13:29:47;14.10;96.80
21830;DHT22;11077;50.264;6.798;2023-04-10T13:32:15;14.00;95.80
21830;DHT22;11077;50.264;6.798;2023-04-10T13:34:42;14.00;95.60
21830;DHT22;11077;50.264;6.798;2023-04-10T13:37:10;13.90;95.20
21830;DHT22;11077;50.264;6.798;2023-04-10T13:39:38;13.90;95.40
21830;DHT22;11077;50.264;6.798;2023-04-10T13:42:05;14.00;95.70
21830;DHT22;11077;50.264;6.798;2023-04-10T13:44:32;14.00;96.60
21830;DHT22;11077;50.264;6.798;2023-04-10T13:46:59;14.10;95.70
21830;DHT22;11077;50.264;6.798;2023-04-10T13:49:28;14.10;95.50
21830;DHT22;11077;50.264;6.798;2023-04-10T13:51:56;14.00;96.50
21830;DHT22;11077;50.264;6.798;2023-04-10T13:54:23;14.00;96.60
21830;DHT22;11077;50.264;6.798;2023-04-10T13:56:51;14.00;95.50
21830;DHT22;11077;50.264;6.798;2023-04-10T13:59:19;13.90;95.70
21830;DHT22;11077;50.264;6.798;2023-04-10T14:01:46;13.80;96.60
21830;DHT22;11077;50.264;6.798;2023-04-10T14:04:15;13.80;96.40
21830;DHT22;11077;50.264;6.798;2023-04-10T14:06:44;13.80;96.90
21830;DHT22;11077;50.264;6.798;2023-04-10T14:09:11;13.90;97.30
21830;DHT22;11077;50.264;6.798;2023-04-10T14:11:38;13.90;96.60
21830;DHT22;11077;50.264;6.798;2023-04-10T14:14:05;13.90;97.10
21830;DHT22;11077;50.264;6.798;2023-04-10T14:16:33;13.90;97.00
21830;DHT22;11077;50.264;6.798;2023-04-10T14:19:00;13.90;97.40
21830;DHT22;11077;50.264;6.798;2023-04-10T14:21:27;13.90;97.90
21830;DHT22;11077;50.264;6.798;2023-04-10T14:23:56;14.00;98.30
21830;DHT22;11077;50.264;6.798;2023-04-10T14:26:24;14.00;97.10
21830;DHT22;11077;50.264;6.798;2023-04-10T14:28:51;13.90;96.60
21830;DHT22;11077;50.264;6.798;2023-04-10T14:31:19;13.80;97.00
21830;DHT22;11077;50.264;6.798;2023-04-10T14:33:46;13.70;98.20
21830;DHT22;11077;50.264;6.798;2023-04-10T14:36:13;13.70;99.20
21830;DHT22;11077;50.264;6.798;2023-04-10T14:38:40;13.70;98.90
21830;DHT22;11077;50.264;6.798;2023-04-10T14:41:08;13.60;98.50
21830;DHT22;11077;50.264;6.798;2023-04-10T14:43:36;13.60;98.50
21830;DHT22;11077;50.264;6.798;2023-04-10T14:46:04;13.40;99.10
21830;DHT22;11077;50.264;6.798;2023-04-10T14:48:31;13.40;99.40
21830;DHT22;11077;50.264;6.798;2023-04-10T14:50:58;13.30;99.60
21830;DHT22;11077;50.264;6.798;2023-04-10T14:53:26;13.30;99.70
21830;DHT22;11077;50.264;6.798;2023-04-10T14:55:53;13.30;99.90
21830;DHT22;11077;50.264;6.798;2023-04-10T14:58:21;13.20;99.90
21830;DHT22;11077;50.264;6.798;2023-04-10T15:00:48;13.30;99.90
21830;DHT22;11077;50.264;6.798;2023-04-10T15:03:16;13.20;99.90
21830;DHT22;11077;50.264;6.798;2023-04-10T15:05:43;13.20;99.90
21830;DHT22;11077;50.264;6.798;2023-04-10T15:08:10;13.30;99.90
21830;DHT22;11077;50.264;6.798;2023-04-10T15:10:38;13.30;99.90
21830;DHT22;11077;50.264;6.798;2023-04-10T15:13:06;13.30;99.90
21830;DHT22;11077;50.264;6.798;2023-04-10T15:15:35;13.30;99.90
21830;DHT22;11077;50.264;6.798;2023-04-10T15:18:02;13.30;99.90
21830;DHT22;11077;50.264;6.798;2023-04-10T15:20:29;13.30;99.90
21830;DHT22;11077;50.264;6.798;2023-04-10T15:22:56;13.20;99.90
21830;DHT22;11077;50.264;6.798;2023-04-10T15:25:26;13.20;99.90
21830;DHT22;11077;50.264;6.798;2023-04-10T15:27:54;13.20;99.90
21830;DHT22;11077;50.264;6.798;2023-04-10T15:30:21;13.10;99.90
21830;DHT22;11077;50.264;6.798;2023-04-10T15:32:50;13.10;99.90
21830;DHT22;11077;50.264;6.798;2023-04-10T15:35:17;13.10;99.90
21830;DHT22;11077;50.264;6.798;2023-04-10T15:37:44;13.00;99.90
21830;DHT22;11077;50.264;6.798;2023-04-10T15:40:12;13.00;99.90
21830;DHT22;11077;50.264;6.798;2023-04-10T15:42:39;13.00;99.90
21830;DHT22;11077;50.264;6.798;2023-04-10T15:45:06;13.00;99.90
21830;DHT22;11077;50.264;6.798;2023-04-10T15:47:34;13.00;99.90
21830;DHT22;11077;50.264;6.798;2023-04-10T15:50:03;13.00;99.90
21830;DHT22;11077;50.264;6.798;2023-04-10T15:52:30;12.90;99.90
21830;DHT22;11077;50.264;6.798;2023-04-10T15:54:58;12.90;99.90
21830;DHT22;11077;50.264;6.798;2023-04-10T15:57:25;13.00;99.90
21830;DHT22;11077;50.264;6.798;2023-04-10T15:59:52;13.00;99.90
21830;DHT22;11077;50.264;6.798;2023-04-10T16:02:21;13.00;99.90
21830;DHT22;11077;50.264;6.798;2023-04-10T16:04:48;12.90;99.90
21830;DHT22;11077;50.264;6.798;2023-04-10T16:07:17;13.00;99.90